Airfield :
LOGIN :

Register | Disclaimer

   EN    FR    IT 

 










Legend :    VFR   Marginal VFR   IFR   Intensive IFR   Very Intensive IFR
Visi :
Ceiling :
>= 8 km
>= 3000ft
5 to 8 km
1000 to 3000 ft
1500m to 5 km
500 to 1000 ft
800 to 1500m
200 to 500 ft
< 800m
< 200 ft
Symbols :   Thunderstorms  Fog  Heavy snow  Heavy precipitations  Wind > 20 kt
SIGMETs :     Misc.  Thunderstorms  Icing  Turbulence  Mountain Waves  Volcanic Ashes






- Airport Elevation : 157 ft
- IATA code : SXF


EDDB - Berlin Schönefeld

CURRENT METAR :
  • 030750Z 15013KT 110V170 CAVOK 24/10 Q1019 NOSIG

EXPIRED METARs :
  • 030720Z 13011KT CAVOK 24/10 Q1019 NOSIG
  • 030650Z 14009KT CAVOK 22/10 Q1019 NOSIG
  • 030620Z 13008KT 110V180 CAVOK 21/11 Q1019 NOSIG
  • 030550Z 14009KT CAVOK 20/11 Q1019 NOSIG
  • 030520Z 14008KT 110V170 CAVOK 19/11 Q1019 NOSIG

TAF TAF EDDB
Valid from the 03 at 06:00 until the 04 at 06:00 UTC


030500Z 0306/0406 14007KT CAVOK
BECMG 0311/0314 20006KT
TEMPO 0317/0322 12004KT
BECMG 0322/0401 29007KT



MET'MAP, your aeronautical weather chart ! - Copyright ORBIFLY December 2007 - Disclaimer

ORBIFLY MET'MAP TEAM :

Programming & Development : Alexandra Zaïnal
Original concept : Baudouin d'Aumeries
Technical & hardware support : Manuel Goepfert
Assistance : Marc-Olivier Méhu




SOURCES & CREDITS :

   NOAA